Time;durP1;ratioP1;P1;durP2;ratioP2;P2;SDS_P1;SDS_P2;PMS_P1;PMS_P2;Temp;Humidity;BMP_temperature;BMP_pressure;BME280_temperature;BME280_humidity;BME280_pressure;Samples;Min_cycle;Max_cycle;Signal;HPM_P1;HPM_P2
2023/04/27 07:10:07;;;;;;;13.98;3.05;;;14.20;59.20;;;;;;4990474;23;19922;-72
2023/04/27 07:12:33;;;;;;;14.00;2.55;;;14.20;59.40;;;;;;4979398;28;20042;-72
2023/04/27 07:14:59;;;;;;;14.98;2.33;;;14.20;59.80;;;;;;4973525;28;20525;-72
2023/04/27 07:17:28;;;;;;;16.35;2.67;;;14.20;60.10;;;;;;4977479;28;20058;-72
2023/04/27 07:19:53;;;;;;;6.20;1.88;;;14.20;60.40;;;;;;4979159;28;20050;-72
2023/04/27 07:22:20;;;;;;;9.55;2.00;;;14.20;58.80;;;;;;4979254;28;20046;-73
2023/04/27 07:24:46;;;;;;;11.93;2.05;;;14.20;57.80;;;;;;4979161;28;20054;-72
2023/04/27 07:27:13;;;;;;;11.25;2.53;;;14.20;58.20;;;;;;4972889;28;20501;-72
2023/04/27 07:29:40;;;;;;;10.02;2.22;;;14.20;57.70;;;;;;4978839;28;20085;-71
2023/04/27 07:32:07;;;;;;;10.57;2.13;;;14.20;56.50;;;;;;4971992;28;20047;-69
2023/04/27 07:34:33;;;;;;;6.18;2.45;;;14.20;56.00;;;;;;4978759;28;20058;-73
2023/04/27 07:37:00;;;;;;;7.97;2.60;;;14.20;55.70;;;;;;4979052;28;20071;-72
2023/04/27 07:39:26;;;;;;;10.15;2.63;;;14.20;55.10;;;;;;4979000;28;20049;-72
2023/04/27 07:41:52;;;;;;;5.57;1.83;;;14.20;55.50;;;;;;4979051;28;20051;-72
2023/04/27 07:44:18;;;;;;;9.57;2.08;;;14.20;55.70;;;;;;4962097;28;20166;-72
2023/04/27 07:46:47;;;;;;;9.35;1.95;;;14.20;56.00;;;;;;4977865;28;20485;-72
2023/04/27 07:49:14;;;;;;;7.22;1.70;;;14.20;56.20;;;;;;4977799;28;20374;-72
2023/04/27 07:51:39;;;;;;;5.05;1.73;;;14.20;56.50;;;;;;4978237;28;20445;-72
2023/04/27 07:54:05;;;;;;;5.07;1.80;;;14.20;56.60;;;;;;4978040;28;20164;-73
2023/04/27 07:56:31;;;;;;;6.10;1.60;;;14.20;56.90;;;;;;4978198;28;20052;-72
2023/04/27 07:58:57;;;;;;;6.68;1.40;;;14.20;57.10;;;;;;4978338;28;20369;-72
2023/04/27 08:01:23;;;;;;;4.80;1.38;;;14.20;57.30;;;;;;4978231;28;20046;-72
2023/04/27 08:03:49;;;;;;;4.85;1.40;;;14.20;57.50;;;;;;4978454;28;20043;-73
2023/04/27 08:06:15;;;;;;;4.63;1.20;;;14.20;57.70;;;;;;4978000;28;20129;-73
2023/04/27 08:08:41;;;;;;;4.90;1.48;;;14.20;57.80;;;;;;4978174;28;20051;-72
2023/04/27 08:11:11;;;;;;;3.85;1.40;;;14.20;58.00;;;;;;4977777;28;20378;-72
2023/04/27 08:13:36;;;;;;;4.00;1.25;;;14.20;58.10;;;;;;4978621;28;20445;-72
2023/04/27 08:16:02;;;;;;;3.22;1.00;;;14.20;58.20;;;;;;4978063;28;20050;-73
2023/04/27 08:18:28;;;;;;;4.03;1.20;;;14.20;58.30;;;;;;4978099;28;20054;-73
2023/04/27 08:20:54;;;;;;;5.70;1.27;;;14.20;59.10;;;;;;4977949;28;20042;-73
2023/04/27 08:23:20;;;;;;;2.53;1.10;;;14.20;58.50;;;;;;4977549;28;20473;-72
2023/04/27 08:25:46;;;;;;;1.48;0.85;;;14.20;58.60;;;;;;4977871;28;20047;-73
2023/04/27 08:28:13;;;;;;;3.10;1.10;;;14.30;58.80;;;;;;4978024;28;20047;-73
2023/04/27 08:30:41;;;;;;;4.25;1.13;;;14.30;58.90;;;;;;4978529;28;20075;-73
2023/04/27 08:33:07;;;;;;;2.38;1.33;;;14.20;58.90;;;;;;4977605;28;20492;-73
2023/04/27 08:35:33;;;;;;;5.47;1.55;;;14.20;59.00;;;;;;4960618;28;20043;-73
2023/04/27 08:37:59;;;;;;;4.10;1.08;;;14.30;59.00;;;;;;4977868;28;20497;-73
2023/04/27 08:40:25;;;;;;;5.03;1.30;;;14.30;59.20;;;;;;4977846;28;20107;-72
2023/04/27 08:42:59;;;;;;;2.15;0.90;;;14.30;59.20;;;;;;4977731;28;20454;-72
2023/04/27 08:45:26;;;;;;;1.63;0.77;;;14.30;59.30;;;;;;4977566;28;20049;-73
2023/04/27 08:47:52;;;;;;;1.80;0.90;;;14.30;59.30;;;;;;4977381;28;20061;-73
2023/04/27 08:50:19;;;;;;;2.55;0.88;;;14.30;59.40;;;;;;4977410;28;20050;-73
2023/04/27 08:52:46;;;;;;;2.45;1.10;;;14.30;59.40;;;;;;4977081;28;20050;-73
2023/04/27 08:55:12;;;;;;;2.75;1.02;;;14.30;59.50;;;;;;4977101;28;20458;-73
2023/04/27 08:57:37;;;;;;;4.93;1.10;;;14.30;59.50;;;;;;4976984;28;20039;-73
2023/04/27 09:00:14;;;;;;;2.08;0.60;;;14.30;59.60;;;;;;4977026;28;20057;-73
2023/04/27 09:02:46;;;;;;;5.75;1.60;;;14.30;59.60;;;;;;4977139;28;20061;-73
2023/04/27 09:05:19;;;;;;;3.70;0.95;;;14.30;59.70;;;;;;4977353;28;20434;-76
2023/04/27 09:08:01;;;;;;;3.42;0.93;;;14.30;59.70;;;;;;4977164;28;20047;-75
2023/04/27 09:10:30;;;;;;;4.13;1.25;;;14.30;59.80;;;;;;4977211;28;20409;-74
2023/04/27 09:12:57;;;;;;;4.00;1.00;;;14.30;59.90;;;;;;4977283;28;20051;-73
2023/04/27 09:15:23;;;;;;;4.97;1.25;;;14.40;60.10;;;;;;4977402;28;20058;-74
2023/04/27 09:17:54;;;;;;;5.50;1.10;;;14.40;60.20;;;;;;4959867;28;20129;-74
2023/04/27 09:20:19;;;;;;;3.97;1.05;;;14.40;60.40;;;;;;4977523;28;20417;-74
2023/04/27 09:22:51;;;;;;;5.50;1.10;;;14.40;60.50;;;;;;4976644;28;20055;-74
2023/04/27 09:25:24;;;;;;;7.15;1.23;;;14.40;60.70;;;;;;4976987;28;20126;-74
2023/04/27 09:27:49;;;;;;;8.35;1.13;;;14.40;60.60;;;;;;4977025;28;20051;-73
2023/04/27 09:30:15;;;;;;;6.95;1.27;;;14.40;60.60;;;;;;4977027;28;20204;-73
2023/04/27 09:33:00;;;;;;;11.95;2.17;;;14.40;60.90;;;;;;4976659;28;20113;-74
2023/04/27 09:35:30;;;;;;;16.48;2.72;;;14.50;60.80;;;;;;4976654;28;20051;-71
2023/04/27 09:37:58;;;;;;;21.23;2.60;;;14.60;60.40;;;;;;4973151;28;20066;-74
2023/04/27 09:40:28;;;;;;;10.45;1.48;;;14.80;60.00;;;;;;4976116;28;20043;-75
2023/04/27 09:42:55;;;;;;;12.38;2.25;;;15.00;59.70;;;;;;4976010;28;20454;-75
2023/04/27 09:45:23;;;;;;;18.33;2.33;;;15.10;59.40;;;;;;4976495;28;20054;-74
2023/04/27 09:47:48;;;;;;;15.10;1.85;;;15.20;59.20;;;;;;4976610;28;20050;-75
2023/04/27 09:50:15;;;;;;;17.75;2.47;;;15.30;59.10;;;;;;4976079;28;20406;-75
2023/04/27 09:52:41;;;;;;;18.67;2.53;;;15.40;59.10;;;;;;4986176;28;20078;-75
2023/04/27 09:55:10;;;;;;;16.15;2.65;;;15.40;59.20;;;;;;4988328;28;20038;-74
2023/04/27 09:57:56;;;;;;;13.90;2.40;;;15.40;59.30;;;;;;4976426;28;20062;-75
2023/04/27 10:00:40;;;;;;;14.15;2.10;;;15.50;58.50;;;;;;4962977;28;20128;-75
2023/04/27 10:03:09;;;;;;;12.57;2.28;;;15.50;57.30;;;;;;4959505;28;20134;-75
2023/04/27 10:05:54;;;;;;;11.07;2.72;;;15.50;56.80;;;;;;4976040;28;20058;-75
2023/04/27 10:08:21;;;;;;;18.27;3.25;;;15.60;55.60;;;;;;4975397;28;20042;-73
2023/04/27 10:10:47;;;;;;;14.10;2.47;;;15.60;55.40;;;;;;4975040;28;20069;-72
2023/04/27 10:13:25;;;;;;;16.92;2.50;;;15.60;55.50;;;;;;4975766;28;20449;-73
2023/04/27 10:15:51;;;;;;;13.60;2.40;;;15.70;55.30;;;;;;4973592;28;20046;-73
2023/04/27 10:18:29;;;;;;;21.00;2.78;;;15.90;55.60;;;;;;4972911;28;20069;-74
2023/04/27 10:20:55;;;;;;;14.30;2.47;;;15.90;55.30;;;;;;4976243;28;20054;-74
2023/04/27 10:23:25;;;;;;;11.80;2.33;;;16.10;55.20;;;;;;4976117;28;20082;-74
2023/04/27 10:25:53;;;;;;;12.93;2.38;;;16.20;55.30;;;;;;4975736;28;20207;-74
2023/04/27 10:28:20;;;;;;;8.50;2.00;;;16.20;55.20;;;;;;4976239;28;20053;-76
2023/04/27 10:30:47;;;;;;;20.80;2.30;;;16.30;55.30;;;;;;4942739;28;20137;-75
2023/04/27 10:33:18;;;;;;;16.45;2.88;;;16.30;55.80;;;;;;4975616;28;20049;-75
2023/04/27 10:35:56;;;;;;;11.60;2.20;;;16.30;55.70;;;;;;4976432;28;20092;-79
2023/04/27 10:38:28;;;;;;;13.82;1.80;;;16.30;55.80;;;;;;4975465;28;20058;-80
2023/04/27 10:40:56;;;;;;;8.38;2.20;;;16.40;55.90;;;;;;4958614;28;20046;-76
2023/04/27 10:43:26;;;;;;;8.82;2.00;;;16.40;55.80;;;;;;4976712;28;20039;-81
2023/04/27 10:45:52;;;;;;;9.32;1.98;;;16.40;55.10;;;;;;4975441;28;20051;-77
2023/04/27 10:48:18;;;;;;;15.63;2.33;;;16.40;54.90;;;;;;4969432;28;20046;-79
2023/04/27 10:50:45;;;;;;;6.93;1.58;;;16.30;54.40;;;;;;4952171;29;20126;-78
2023/04/27 10:53:11;;;;;;;11.73;2.00;;;16.20;54.00;;;;;;4966564;28;20042;-78
2023/04/27 10:55:37;;;;;;;14.27;2.40;;;16.20;54.10;;;;;;4958440;28;20101;-78
2023/04/27 10:58:03;;;;;;;10.75;2.60;;;16.20;54.80;;;;;;4958544;28;20086;-77
2023/04/27 11:00:35;;;;;;;12.88;2.45;;;16.10;54.90;;;;;;4975336;28;20075;-72
2023/04/27 11:03:19;;;;;;;14.32;2.50;;;16.10;55.70;;;;;;4975668;28;20050;-77
2023/04/27 11:05:47;;;;;;;11.48;2.25;;;16.00;56.10;;;;;;4956795;29;20051;-74
2023/04/27 11:08:18;;;;;;;7.82;2.10;;;16.00;56.90;;;;;;4956764;29;20047;-71
2023/04/27 11:10:45;;;;;;;16.58;2.63;;;15.90;57.50;;;;;;4972770;28;20121;-73
2023/04/27 11:13:13;;;;;;;15.60;2.80;;;15.90;58.30;;;;;;4975474;28;20047;-74
2023/04/27 11:15:58;;;;;;;13.10;3.40;;;15.90;58.70;;;;;;4969545;28;20121;-75
2023/04/27 11:18:26;;;;;;;13.43;4.60;;;15.80;58.50;;;;;;4974261;28;21925;-74
2023/04/27 11:20:53;;;;;;;21.33;5.55;;;15.80;59.00;;;;;;4975582;28;20093;-77
2023/04/27 11:23:28;;;;;;;12.77;5.85;;;15.80;59.30;;;;;;4976950;28;20133;-77
2023/04/27 11:25:55;;;;;;;19.05;5.68;;;15.70;59.80;;;;;;4978783;28;20039;-77
2023/04/27 11:28:22;;;;;;;18.05;5.63;;;15.70;60.00;;;;;;4979057;28;20436;-76
2023/04/27 11:30:58;;;;;;;11.05;3.17;;;15.70;60.00;;;;;;4962303;28;20125;-76
2023/04/27 11:33:25;;;;;;;12.85;3.35;;;15.60;58.50;;;;;;4978613;28;20053;-75
2023/04/27 11:35:52;;;;;;;12.70;3.60;;;15.60;58.20;;;;;;4961843;28;20116;-75
2023/04/27 11:38:18;;;;;;;7.20;2.92;;;15.60;57.90;;;;;;4978672;28;20126;-75
2023/04/27 11:41:03;;;;;;;6.50;2.22;;;15.60;56.80;;;;;;4978494;28;20051;-76
2023/04/27 11:43:29;;;;;;;9.07;3.28;;;15.60;55.40;;;;;;4964612;28;20129;-77
2023/04/27 11:45:57;;;;;;;8.50;3.83;;;15.60;55.80;;;;;;4978706;28;20450;-78
2023/04/27 11:48:23;;;;;;;9.88;3.28;;;15.50;56.70;;;;;;4977138;28;20054;-77
2023/04/27 11:50:50;;;;;;;7.22;2.70;;;15.50;56.90;;;;;;4961748;28;20365;-77
2023/04/27 11:53:16;;;;;;;11.10;2.78;;;15.40;57.10;;;;;;4978314;28;20194;-77
2023/04/27 11:55:42;;;;;;;12.13;3.20;;;15.40;57.20;;;;;;4976528;28;20094;-77
2023/04/27 11:58:17;;;;;;;11.57;3.20;;;15.40;57.70;;;;;;4975224;28;20054;-76
2023/04/27 12:00:43;;;;;;;11.75;2.22;;;15.40;58.10;;;;;;4978485;28;20054;-76
2023/04/27 12:03:09;;;;;;;15.70;3.28;;;15.40;58.40;;;;;;4960918;28;20054;-76
2023/04/27 12:05:35;;;;;;;11.95;2.65;;;15.40;58.70;;;;;;4978249;28;20117;-75
2023/04/27 12:08:00;;;;;;;13.30;2.80;;;15.40;58.60;;;;;;4961379;28;20073;-75
2023/04/27 12:10:26;;;;;;;13.70;2.65;;;15.40;58.90;;;;;;4977226;28;20058;-75
2023/04/27 12:12:52;;;;;;;6.38;2.90;;;15.40;59.10;;;;;;4978510;28;20129;-76
2023/04/27 12:15:18;;;;;;;7.78;2.90;;;15.40;56.70;;;;;;4974522;28;20043;-74
2023/04/27 12:17:44;;;;;;;4.65;3.25;;;15.30;51.40;;;;;;4958506;29;20126;-74
2023/04/27 12:20:11;;;;;;;9.05;3.03;;;15.20;50.40;;;;;;4970649;28;20043;-75
2023/04/27 12:22:37;;;;;;;5.15;2.30;;;15.10;49.40;;;;;;4977995;28;20186;-75
2023/04/27 12:25:04;;;;;;;7.35;2.83;;;14.90;49.60;;;;;;4972969;28;20039;-74
2023/04/27 12:27:31;;;;;;;5.07;2.80;;;14.80;48.30;;;;;;4975438;28;20068;-75
2023/04/27 12:29:58;;;;;;;10.00;2.90;;;14.60;48.50;;;;;;4977883;28;20058;-76
2023/04/27 12:32:24;;;;;;;8.95;2.95;;;14.50;48.30;;;;;;4976786;28;20442;-76
2023/04/27 12:34:49;;;;;;;5.82;3.08;;;14.50;47.90;;;;;;4976736;28;20096;-76
2023/04/27 12:37:15;;;;;;;11.93;3.22;;;14.40;47.90;;;;;;4977541;28;20107;-73
2023/04/27 12:39:41;;;;;;;8.40;2.80;;;14.30;48.60;;;;;;4941155;28;20051;-73
2023/04/27 12:42:07;;;;;;;10.40;2.60;;;14.20;49.60;;;;;;4972231;28;20047;-72
2023/04/27 12:44:32;;;;;;;5.45;2.22;;;14.30;50.30;;;;;;4977003;28;20432;-72
2023/04/27 12:46:58;;;;;;;6.68;2.25;;;14.30;51.10;;;;;;4971730;28;20083;-72
2023/04/27 12:49:24;;;;;;;6.82;3.00;;;14.40;51.40;;;;;;4976388;28;20054;-72
2023/04/27 12:51:51;;;;;;;5.45;2.03;;;14.40;51.70;;;;;;4975678;28;20051;-72
2023/04/27 12:54:17;;;;;;;8.82;2.30;;;14.50;51.90;;;;;;4973517;28;20031;-73
2023/04/27 12:56:43;;;;;;;5.22;2.10;;;14.50;51.80;;;;;;4977366;28;20480;-73
2023/04/27 12:59:09;;;;;;;9.43;2.42;;;14.60;51.90;;;;;;4976985;28;20043;-72
2023/04/27 13:01:34;;;;;;;4.93;2.15;;;14.60;52.00;;;;;;4976933;28;20042;-73
2023/04/27 13:04:02;;;;;;;5.55;2.28;;;14.60;52.20;;;;;;4977151;28;20058;-72
2023/04/27 13:06:30;;;;;;;4.03;1.98;;;14.60;52.30;;;;;;4959726;28;20126;-73
2023/04/27 13:08:57;;;;;;;4.22;2.00;;;14.60;52.40;;;;;;4976798;28;20046;-72
2023/04/27 13:11:23;;;;;;;4.60;1.98;;;14.70;52.60;;;;;;4976790;28;20389;-73
2023/04/27 13:13:49;;;;;;;5.80;1.73;;;14.70;52.50;;;;;;4970957;28;20049;-74
2023/04/27 13:16:15;;;;;;;9.85;2.80;;;14.70;52.50;;;;;;4968929;28;20450;-74
2023/04/27 13:18:46;;;;;;;4.88;2.40;;;14.70;52.50;;;;;;4977170;28;20042;-73
2023/04/27 13:21:13;;;;;;;6.35;2.15;;;14.70;53.10;;;;;;4976435;28;20046;-73
2023/04/27 13:23:38;;;;;;;4.38;1.88;;;14.70;53.50;;;;;;4976925;28;20079;-73
2023/04/27 13:26:05;;;;;;;7.20;2.15;;;14.80;54.00;;;;;;4975013;28;20086;-74
2023/04/27 13:28:31;;;;;;;4.85;2.00;;;14.80;54.20;;;;;;4973243;28;20035;-73
2023/04/27 13:30:57;;;;;;;12.45;3.33;;;14.80;54.40;;;;;;4977153;28;20205;-72
2023/04/27 13:33:23;;;;;;;10.15;3.10;;;14.80;54.30;;;;;;4976148;28;20050;-72
2023/04/27 13:35:50;;;;;;;8.52;2.85;;;14.80;54.00;;;;;;4976575;28;20058;-72
2023/04/27 13:38:15;;;;;;;7.45;2.80;;;14.80;53.60;;;;;;4974831;28;20051;-73
2023/04/27 13:40:41;;;;;;;9.48;3.35;;;14.80;53.50;;;;;;4972855;28;20039;-73
2023/04/27 13:43:07;;;;;;;6.78;2.63;;;14.80;53.10;;;;;;4976215;28;20054;-73
2023/04/27 13:45:32;;;;;;;10.40;2.42;;;14.80;53.30;;;;;;4975468;28;20042;-72
2023/04/27 13:47:58;;;;;;;11.73;2.53;;;14.80;53.60;;;;;;4976708;28;20046;-73
2023/04/27 13:50:24;;;;;;;8.57;2.53;;;14.80;53.80;;;;;;4974188;28;20069;-72
2023/04/27 13:52:49;;;;;;;7.47;2.20;;;14.70;53.90;;;;;;4972214;28;20046;-73
2023/04/27 13:55:15;;;;;;;6.85;2.30;;;14.70;54.30;;;;;;4976479;28;20073;-73
2023/04/27 13:57:41;;;;;;;7.97;2.58;;;14.70;54.80;;;;;;4974338;28;20046;-73
2023/04/27 14:00:10;;;;;;;9.23;3.03;;;14.70;54.80;;;;;;4976131;28;20130;-72
2023/04/27 14:02:36;;;;;;;13.80;3.38;;;14.80;54.50;;;;;;4971815;28;20193;-73
2023/04/27 14:05:03;;;;;;;10.38;2.97;;;14.80;53.40;;;;;;4973326;28;20057;-73
2023/04/27 14:07:30;;;;;;;4.68;2.10;;;14.80;53.40;;;;;;4969556;28;20086;-73
2023/04/27 14:09:56;;;;;;;6.88;2.78;;;14.80;53.70;;;;;;4972124;28;20058;-73
2023/04/27 14:12:22;;;;;;;8.02;2.15;;;14.70;53.80;;;;;;4975824;28;20454;-73
2023/04/27 14:14:48;;;;;;;7.78;2.65;;;14.70;53.90;;;;;;4969771;28;20058;-71
2023/04/27 14:17:13;;;;;;;9.27;2.38;;;14.70;54.20;;;;;;4976258;28;20050;-71
2023/04/27 14:19:40;;;;;;;7.28;2.60;;;14.70;54.40;;;;;;4975946;28;20038;-71
2023/04/27 14:22:07;;;;;;;5.82;2.20;;;14.70;54.70;;;;;;4976063;28;20058;-71
2023/04/27 14:24:32;;;;;;;7.15;2.15;;;14.70;54.90;;;;;;4975744;28;20432;-71
2023/04/27 14:26:58;;;;;;;5.28;2.13;;;14.70;55.30;;;;;;4975989;28;20138;-71
2023/04/27 14:29:24;;;;;;;5.45;2.13;;;14.70;55.70;;;;;;4975767;28;20053;-71
2023/04/27 14:31:50;;;;;;;4.53;2.13;;;14.80;55.80;;;;;;4976551;28;20090;-71
2023/04/27 14:34:16;;;;;;;6.57;2.00;;;14.80;56.00;;;;;;4976031;28;20046;-71
2023/04/27 14:36:41;;;;;;;5.22;2.00;;;14.80;56.20;;;;;;4975498;28;20054;-72
2023/04/27 14:39:08;;;;;;;3.40;1.85;;;14.90;56.60;;;;;;4975745;28;20043;-71
2023/04/27 14:41:35;;;;;;;5.65;2.33;;;14.90;57.00;;;;;;4976547;28;20082;-71
2023/04/27 14:44:02;;;;;;;12.27;2.72;;;14.90;57.50;;;;;;4975726;28;20080;-71
2023/04/27 14:46:28;;;;;;;5.30;2.20;;;14.90;57.90;;;;;;4976046;28;20051;-71
2023/04/27 14:48:53;;;;;;;5.93;2.05;;;14.90;58.20;;;;;;4976116;28;20086;-71
2023/04/27 14:51:19;;;;;;;5.68;2.60;;;15.00;58.50;;;;;;4975996;28;20051;-72
2023/04/27 14:53:45;;;;;;;6.55;2.70;;;15.00;58.50;;;;;;4975638;28;20066;-71
2023/04/27 14:56:11;;;;;;;6.80;3.30;;;15.00;57.90;;;;;;4976165;28;20047;-71
2023/04/27 14:58:37;;;;;;;6.35;3.22;;;15.00;57.70;;;;;;4972661;28;20374;-75
2023/04/27 15:01:03;;;;;;;4.50;2.67;;;15.00;57.10;;;;;;4951859;28;20051;-75
2023/04/27 15:03:32;;;;;;;6.50;2.80;;;15.00;56.40;;;;;;4966046;28;20521;-72
2023/04/27 15:05:59;;;;;;;18.42;4.13;;;15.00;56.10;;;;;;4960305;28;20533;-73
2023/04/27 15:08:24;;;;;;;12.80;3.72;;;15.00;55.60;;;;;;4961940;28;20051;-72
2023/04/27 15:10:50;;;;;;;19.10;4.10;;;15.00;55.60;;;;;;4972894;28;20054;-73
2023/04/27 15:13:16;;;;;;;20.15;4.30;;;15.00;56.20;;;;;;4978950;28;20457;-74
2023/04/27 15:15:45;;;;;;;9.75;3.85;;;15.10;56.80;;;;;;4979342;28;20070;-74
2023/04/27 15:18:11;;;;;;;12.68;3.42;;;15.00;57.50;;;;;;4979290;28;20039;-74
2023/04/27 15:20:37;;;;;;;17.13;4.28;;;15.10;58.20;;;;;;4979415;28;20361;-75
2023/04/27 15:23:03;;;;;;;19.95;3.67;;;15.10;58.50;;;;;;4962149;28;20125;-74
2023/04/27 15:25:28;;;;;;;12.93;3.10;;;15.20;58.80;;;;;;4978291;28;20450;-74
2023/04/27 15:27:54;;;;;;;10.50;2.45;;;15.40;58.90;;;;;;4979282;28;20331;-74
2023/04/27 15:30:20;;;;;;;12.88;2.45;;;15.40;59.00;;;;;;4979153;28;20454;-73
2023/04/27 15:32:46;;;;;;;12.85;2.55;;;15.50;59.20;;;;;;4979202;28;20057;-73
2023/04/27 15:35:12;;;;;;;18.65;3.67;;;15.60;59.30;;;;;;4978878;28;20365;-74
2023/04/27 15:37:38;;;;;;;13.90;3.45;;;15.60;59.40;;;;;;4978489;28;20043;-73
2023/04/27 15:40:07;;;;;;;23.10;3.90;;;15.70;59.50;;;;;;4978398;28;20043;-74
2023/04/27 15:42:33;;;;;;;21.90;3.25;;;15.70;59.60;;;;;;4960132;29;20103;-74
2023/04/27 15:44:59;;;;;;;29.55;4.50;;;15.80;59.60;;;;;;4959727;29;20411;-74
2023/04/27 15:47:25;;;;;;;21.95;4.32;;;15.80;59.70;;;;;;4978649;28;20047;-73
2023/04/27 15:49:51;;;;;;;25.58;4.07;;;15.80;59.70;;;;;;4961138;28;20449;-73
2023/04/27 15:52:17;;;;;;;21.42;3.85;;;15.80;59.80;;;;;;4978054;28;20113;-75
2023/04/27 15:54:44;;;;;;;23.55;3.83;;;15.80;60.00;;;;;;4972382;28;20055;-76
2023/04/27 15:57:10;;;;;;;23.55;4.30;;;15.80;60.20;;;;;;4978308;28;20062;-73
2023/04/27 15:59:35;;;;;;;20.85;3.35;;;15.80;60.30;;;;;;4978334;28;20378;-73
2023/04/27 16:02:01;;;;;;;29.13;4.57;;;15.80;60.40;;;;;;4977960;28;20129;-74
2023/04/27 16:04:27;;;;;;;22.38;3.72;;;15.80;60.50;;;;;;4978170;28;20366;-74
2023/04/27 16:06:52;;;;;;;22.13;4.13;;;15.80;60.40;;;;;;4977996;28;20043;-74
2023/04/27 16:09:19;;;;;;;28.40;4.05;;;15.80;60.30;;;;;;4977090;28;20114;-72
2023/04/27 16:11:45;;;;;;;28.40;4.22;;;15.90;60.60;;;;;;4978460;28;20065;-73
2023/04/27 16:14:10;;;;;;;20.73;3.72;;;15.80;60.70;;;;;;4978240;28;20093;-75
2023/04/27 16:16:37;;;;;;;23.35;4.05;;;15.80;60.00;;;;;;4977861;28;20435;-74
2023/04/27 16:19:03;;;;;;;15.82;3.40;;;15.80;60.10;;;;;;4978011;28;20447;-73
2023/04/27 16:21:29;;;;;;;24.35;3.80;;;15.80;60.30;;;;;;4978015;28;20050;-73
2023/04/27 16:23:54;;;;;;;25.20;4.00;;;15.80;60.60;;;;;;4977697;28;20058;-77
2023/04/27 16:26:20;;;;;;;20.88;4.25;;;15.80;61.50;;;;;;4977597;28;20129;-68
2023/04/27 16:28:46;;;;;;;28.00;4.25;;;15.90;61.30;;;;;;4978242;28;20050;-74
2023/04/27 16:31:12;;;;;;;22.45;4.50;;;16.00;62.00;;;;;;4977719;28;20035;-76
2023/04/27 16:33:38;;;;;;;18.63;4.03;;;16.00;61.50;;;;;;4977766;28;20050;-76
2023/04/27 16:36:04;;;;;;;25.80;3.50;;;16.00;61.30;;;;;;4961061;28;20055;-71
2023/04/27 16:38:30;;;;;;;28.00;3.67;;;16.00;61.20;;;;;;4975535;28;20051;-76
2023/04/27 16:40:57;;;;;;;22.80;3.80;;;16.10;61.20;;;;;;4977715;28;20061;-78
2023/04/27 16:43:23;;;;;;;17.40;3.72;;;16.00;61.20;;;;;;4977684;28;20058;-78
2023/04/27 16:45:49;;;;;;;28.42;4.95;;;16.00;60.40;;;;;;4977434;28;20470;-78
2023/04/27 16:48:15;;;;;;;33.42;4.60;;;16.00;60.50;;;;;;4977166;28;20053;-78
2023/04/27 16:50:41;;;;;;;26.08;4.35;;;16.00;60.60;;;;;;4977247;28;20125;-76
2023/04/27 16:53:09;;;;;;;38.22;5.03;;;16.00;60.80;;;;;;4977266;28;20054;-76
2023/04/27 16:55:35;;;;;;;48.15;6.78;;;16.00;61.00;;;;;;4960037;28;20062;-78
2023/04/27 16:58:01;;;;;;;20.45;3.90;;;16.00;61.00;;;;;;4977467;28;20046;-78
2023/04/27 19:39:08;;;;;;;4.47;3.90;;;15.00;59.30;;;;;;5200154;23;20071;-70
2023/04/27 19:41:34;;;;;;;8.63;4.35;;;15.00;58.90;;;;;;4939067;29;20056;-70
2023/04/27 19:44:00;;;;;;;5.00;3.63;;;15.00;58.50;;;;;;4937777;29;20043;-69
2023/04/27 19:46:26;;;;;;;8.98;4.57;;;15.00;58.30;;;;;;4939665;29;20407;-69
2023/04/27 19:48:54;;;;;;;7.45;4.85;;;15.00;58.00;;;;;;4940156;29;20086;-70
2023/04/27 19:51:20;;;;;;;7.10;5.03;;;14.90;57.90;;;;;;4939689;29;20407;-69
2023/04/27 19:53:46;;;;;;;5.85;5.20;;;14.90;57.80;;;;;;4940173;29;20048;-69
2023/04/27 19:56:11;;;;;;;8.68;6.25;;;14.90;57.80;;;;;;4940010;29;20114;-69
2023/04/27 19:58:37;;;;;;;7.20;5.18;;;14.90;57.70;;;;;;4939888;29;20135;-69
2023/04/27 20:01:03;;;;;;;8.63;5.50;;;14.90;57.60;;;;;;4940206;29;20102;-69
2023/04/27 20:03:29;;;;;;;10.25;5.95;;;14.80;57.50;;;;;;4939880;29;20047;-69
2023/04/27 20:05:55;;;;;;;5.97;5.20;;;14.80;57.50;;;;;;4923479;29;20052;-69
2023/04/27 20:08:20;;;;;;;6.95;5.53;;;14.80;57.50;;;;;;4939808;29;20114;-68
2023/04/27 20:10:46;;;;;;;8.20;5.05;;;14.80;57.50;;;;;;4939622;29;20051;-69
2023/04/27 20:13:12;;;;;;;5.20;4.22;;;14.80;57.70;;;;;;4939675;29;20055;-68
2023/04/27 20:15:37;;;;;;;10.82;5.05;;;14.70;57.60;;;;;;4939360;29;20039;-68
2023/04/27 20:18:03;;;;;;;7.32;5.25;;;14.70;57.50;;;;;;4939629;29;20127;-68
2023/04/27 20:20:29;;;;;;;7.40;4.68;;;14.60;57.50;;;;;;4939968;29;20187;-68
2023/04/27 20:22:55;;;;;;;6.03;4.93;;;14.60;57.30;;;;;;4939461;29;20055;-68
2023/04/27 20:25:21;;;;;;;7.07;4.57;;;14.60;57.20;;;;;;4923305;29;20530;-68
2023/04/27 20:27:46;;;;;;;7.63;4.78;;;14.60;57.10;;;;;;4939515;29;20087;-68
2023/04/27 20:30:12;;;;;;;8.57;4.30;;;14.60;57.00;;;;;;4939621;29;20087;-68
2023/04/27 20:32:39;;;;;;;4.68;4.00;;;14.50;56.90;;;;;;4939734;29;20059;-68
2023/04/27 20:35:10;;;;;;;5.68;4.65;;;14.50;56.90;;;;;;4939270;29;20048;-68
2023/04/27 20:37:37;;;;;;;5.20;3.88;;;14.50;57.00;;;;;;4939402;29;20070;-68
2023/04/27 20:40:09;;;;;;;7.00;4.22;;;14.40;57.00;;;;;;4938684;29;20103;-68
2023/04/27 20:42:35;;;;;;;8.77;4.43;;;14.40;57.00;;;;;;4935470;29;20059;-69
2023/04/27 20:45:01;;;;;;;9.88;4.32;;;14.40;57.00;;;;;;4939429;29;20047;-68
2023/04/27 20:47:26;;;;;;;5.57;4.00;;;14.30;57.80;;;;;;4938685;29;20135;-69
2023/04/27 20:49:52;;;;;;;7.75;4.35;;;14.30;57.30;;;;;;4939237;29;20123;-68
2023/04/27 20:52:18;;;;;;;10.40;4.45;;;14.30;57.40;;;;;;4938692;29;20055;-68
2023/04/27 20:54:44;;;;;;;4.78;4.00;;;14.20;57.40;;;;;;4938249;29;20052;-69
2023/04/27 20:57:12;;;;;;;7.88;4.43;;;14.20;57.40;;;;;;4937795;29;20048;-68
2023/04/27 20:59:41;;;;;;;7.25;4.30;;;14.20;57.50;;;;;;4939300;29;20063;-68
2023/04/27 21:02:07;;;;;;;6.47;4.15;;;14.20;57.40;;;;;;4938988;29;20043;-68
